Time;durP1;ratioP1;P1;durP2;ratioP2;P2;SDS_P1;SDS_P2;PMS_P1;PMS_P2;Temp;Humidity;BMP_temperature;BMP_pressure;BME280_temperature;BME280_humidity;BME280_pressure;Samples;Min_cycle;Max_cycle;Signal;HPM_P1;HPM_P2
2023/12/19 00:02:24;;;;;;;;;;;;;;;;;;4915288;29;21628;-75
2023/12/19 00:04:49;;;;;;;;;;;;;;;;;;4926105;28;20450;-72
2023/12/19 00:07:17;;;;;;;;;;;;;;;;;;4927453;28;20018;-72
2023/12/19 00:09:43;;;;;;;;;;;;;;;;;;4913042;29;19926;-70
2023/12/19 00:12:08;;;;;;;;;;;;;;;;;;4912162;29;19926;-70
2023/12/19 00:14:34;;;;;;;;;;;;;;;;;;4926573;28;19926;-72
2023/12/19 00:17:00;;;;;;;;;;;;;;;;;;4928998;28;19939;-73
2023/12/19 00:19:25;;;;;;;;;;;;;;;;;;4926901;28;19961;-75
2023/12/19 00:21:51;;;;;;;;;;;;;;;;;;4912775;28;20014;-72
2023/12/19 00:24:16;;;;;;;;;;;;;;;;;;4927162;28;20198;-70
2023/12/19 00:26:41;;;;;;;;;;;;;;;;;;4912819;29;19925;-72
2023/12/19 00:29:07;;;;;;;;;;;;;;;;;;4911524;28;19981;-70
2023/12/19 00:31:32;;;;;;;;;;;;;;;;;;4924992;28;19981;-71
2023/12/19 00:33:58;;;;;;;;;;;;;;;;;;4924557;28;19922;-71
2023/12/19 00:36:23;;;;;;;;;;;;;;;;;;4911979;29;20013;-71
2023/12/19 00:38:49;;;;;;;;;;;;;;;;;;4925573;28;20905;-71
2023/12/19 00:41:14;;;;;;;;;;;;;;;;;;4922781;28;19923;-73
2023/12/19 00:43:42;;;;;;;;;;;;;;;;;;4913303;29;19942;-72
2023/12/19 00:46:07;;;;;;;;;;;;;;;;;;4924119;28;19930;-74
2023/12/19 00:48:33;;;;;;;;;;;;;;;;;;4912670;29;20420;-70
2023/12/19 00:50:58;;;;;;;;;;;;;;;;;;4911138;29;19974;-71
2023/12/19 00:53:27;;;;;;;;;;;;;;;;;;4924586;28;20375;-75
2023/12/19 00:55:52;;;;;;;;;;;;;;;;;;4912389;29;19974;-71
2023/12/19 00:58:17;;;;;;;;;;;;;;;;;;4910158;29;20375;-72
2023/12/19 01:00:42;;;;;;;;;;;;;;;;;;4909705;29;19998;-72
2023/12/19 01:03:08;;;;;;;;;;;;;;;;;;4912782;29;19991;-71
2023/12/19 01:05:33;;;;;;;;;;;;;;;;;;4925533;28;20700;-72
2023/12/19 01:07:59;;;;;;;;;;;;;;;;;;4909861;29;19919;-72
2023/12/19 01:10:24;;;;;;;;;;;;;;;;;;4903850;28;19929;-73
2023/12/19 01:12:50;;;;;;;;;;;;;;;;;;4923557;28;20352;-70
2023/12/19 01:15:17;;;;;;;;;;;;;;;;;;4921562;28;20021;-74
2023/12/19 01:17:43;;;;;;;;;;;;;;;;;;4924193;28;19993;-72
2023/12/19 01:20:09;;;;;;;;;;;;;;;;;;4924553;28;19923;-70
2023/12/19 01:22:34;;;;;;;;;;;;;;;;;;4910962;29;20502;-73
2023/12/19 01:24:59;;;;;;;;;;;;;;;;;;4926607;28;20029;-71
2023/12/19 01:27:25;;;;;;;;;;;;;;;;;;4922958;28;19962;-69
2023/12/19 01:29:52;;;;;;;;;;;;;;;;;;4923661;28;20394;-71
2023/12/19 01:32:18;;;;;;;;;;;;;;;;;;4924143;28;19941;-74
2023/12/19 01:34:43;;;;;;;;;;;;;;;;;;4910124;29;19923;-72
2023/12/19 01:37:08;;;;;;;;;;;;;;;;;;4925953;28;19931;-71
2023/12/19 01:39:36;;;;;;;;;;;;;;;;;;4922180;28;19970;-71
2023/12/19 01:42:02;;;;;;;;;;;;;;;;;;4925326;28;20010;-72
2023/12/19 01:44:28;;;;;;;;;;;;;;;;;;4924306;28;20085;-71
2023/12/19 01:46:55;;;;;;;;;;;;;;;;;;4910547;29;20470;-70
2023/12/19 01:49:20;;;;;;;;;;;;;;;;;;4923507;28;20017;-71
2023/12/19 01:51:46;;;;;;;;;;;;;;;;;;4923544;28;19926;-74
2023/12/19 01:54:11;;;;;;;;;;;;;;;;;;4912805;29;20563;-73
2023/12/19 01:56:39;;;;;;;;;;;;;;;;;;4926330;28;20099;-72
2023/12/19 01:59:06;;;;;;;;;;;;;;;;;;4928337;28;20002;-72
2023/12/19 02:01:32;;;;;;;;;;;;;;;;;;4930439;28;19919;-75
2023/12/19 02:03:57;;;;;;;;;;;;;;;;;;4928799;28;20020;-72
2023/12/19 02:06:26;;;;;;;;;;;;;;;;;;4926770;28;19929;-71
2023/12/19 02:08:51;;;;;;;;;;;;;;;;;;4926455;28;19966;-73
2023/12/19 02:11:19;;;;;;;;;;;;;;;;;;4914311;28;19923;-72
2023/12/19 02:13:45;;;;;;;;;;;;;;;;;;4913028;29;19923;-72
2023/12/19 02:16:11;;;;;;;;;;;;;;;;;;4912233;29;20390;-72
2023/12/19 02:18:36;;;;;;;;;;;;;;;;;;4926444;28;19938;-72
2023/12/19 02:21:04;;;;;;;;;;;;;;;;;;4926883;28;19934;-75
2023/12/19 02:23:32;;;;;;;;;;;;;;;;;;4914074;29;19915;-75
2023/12/19 02:25:57;;;;;;;;;;;;;;;;;;4928791;28;19942;-73
2023/12/19 02:28:22;;;;;;;;;;;;;;;;;;4910746;29;19934;-75
2023/12/19 02:30:48;;;;;;;;;;;;;;;;;;4914770;29;20048;-71
2023/12/19 02:33:14;;;;;;;;;;;;;;;;;;4912334;29;19993;-73
2023/12/19 02:35:39;;;;;;;;;;;;;;;;;;4915152;29;19962;-73
2023/12/19 02:38:05;;;;;;;;;;;;;;;;;;4913957;28;19929;-71
2023/12/19 02:40:32;;;;;;;;;;;;;;;;;;4928159;28;19965;-70
2023/12/19 02:42:58;;;;;;;;;;;;;;;;;;4927388;28;19927;-73
2023/12/19 02:45:23;;;;;;;;;;;;;;;;;;4913499;28;19930;-72
2023/12/19 02:47:52;;;;;;;;;;;;;;;;;;4930137;28;19923;-71
2023/12/19 02:50:17;;;;;;;;;;;;;;;;;;4911418;28;20013;-72
2023/12/19 02:52:42;;;;;;;;;;;;;;;;;;4929154;28;19923;-75
2023/12/19 02:55:08;;;;;;;;;;;;;;;;;;4923151;28;20022;-71
2023/12/19 02:57:33;;;;;;;;;;;;;;;;;;4912169;28;19961;-73
2023/12/19 02:59:58;;;;;;;;;;;;;;;;;;4924688;28;20088;-70
2023/12/19 03:02:24;;;;;;;;;;;;;;;;;;4914063;28;20371;-71
2023/12/19 03:04:49;;;;;;;;;;;;;;;;;;4926231;28;19925;-73
2023/12/19 03:07:15;;;;;;;;;;;;;;;;;;4909036;28;20241;-73
2023/12/19 03:09:43;;;;;;;;;;;;;;;;;;4925494;28;21688;-74
2023/12/19 03:12:09;;;;;;;;;;;;;;;;;;4911907;29;20335;-72
2023/12/19 03:14:36;;;;;;;;;;;;;;;;;;4912707;29;19935;-75
2023/12/19 03:17:01;;;;;;;;;;;;;;;;;;4910217;29;19941;-74
2023/12/19 03:19:27;;;;;;;;;;;;;;;;;;4929045;28;20345;-71
2023/12/19 03:21:53;;;;;;;;;;;;;;;;;;4925644;28;20231;-72
2023/12/19 03:24:21;;;;;;;;;;;;;;;;;;4926609;28;19918;-72
2023/12/19 03:26:46;;;;;;;;;;;;;;;;;;4926957;28;20491;-75
2023/12/19 03:29:12;;;;;;;;;;;;;;;;;;4925054;28;19919;-71
2023/12/19 03:31:37;;;;;;;;;;;;;;;;;;4925899;28;20374;-70
2023/12/19 03:34:06;;;;;;;;;;;;;;;;;;4907186;29;21477;-73
2023/12/19 03:36:31;;;;;;;;;;;;;;;;;;4922410;28;20009;-72
2023/12/19 03:38:57;;;;;;;;;;;;;;;;;;4912662;29;19919;-70
2023/12/19 03:41:22;;;;;;;;;;;;;;;;;;4924756;28;19930;-71
2023/12/19 03:43:49;;;;;;;;;;;;;;;;;;4927774;28;19965;-71
2023/12/19 03:46:18;;;;;;;;;;;;;;;;;;4910159;29;20027;-72
2023/12/19 03:48:46;;;;;;;;;;;;;;;;;;4926900;28;19923;-72
2023/12/19 03:51:11;;;;;;;;;;;;;;;;;;4908593;28;20527;-71
2023/12/19 03:53:39;;;;;;;;;;;;;;;;;;4926558;28;19923;-70
2023/12/19 03:56:05;;;;;;;;;;;;;;;;;;4924806;28;20009;-73
2023/12/19 03:58:32;;;;;;;;;;;;;;;;;;4909925;28;20023;-72
2023/12/19 04:00:58;;;;;;;;;;;;;;;;;;4909445;29;19919;-71
2023/12/19 04:03:23;;;;;;;;;;;;;;;;;;4924236;28;19931;-72
2023/12/19 04:05:48;;;;;;;;;;;;;;;;;;4924111;28;20010;-72
2023/12/19 04:08:14;;;;;;;;;;;;;;;;;;4911550;29;19923;-72
2023/12/19 04:10:39;;;;;;;;;;;;;;;;;;4925682;28;19922;-72
2023/12/19 04:13:05;;;;;;;;;;;;;;;;;;4909624;29;19926;-72
2023/12/19 04:15:30;;;;;;;;;;;;;;;;;;4913347;29;19966;-73
2023/12/19 04:17:56;;;;;;;;;;;;;;;;;;4927319;28;20290;-73
2023/12/19 04:20:21;;;;;;;;;;;;;;;;;;4925701;28;19919;-72
2023/12/19 04:22:49;;;;;;;;;;;;;;;;;;4923441;28;19923;-73
2023/12/19 04:25:18;;;;;;;;;;;;;;;;;;4910555;29;19926;-74
2023/12/19 04:27:45;;;;;;;;;;;;;;;;;;4912666;29;19918;-71
2023/12/19 04:30:13;;;;;;;;;;;;;;;;;;4910637;28;19958;-71
2023/12/19 04:32:39;;;;;;;;;;;;;;;;;;4924817;28;19929;-68
2023/12/19 04:35:04;;;;;;;;;;;;;;;;;;4908952;29;20228;-73
2023/12/19 04:37:29;;;;;;;;;;;;;;;;;;4926143;28;20284;-69
2023/12/19 04:39:57;;;;;;;;;;;;;;;;;;4923600;28;20400;-69
2023/12/19 04:42:23;;;;;;;;;;;;;;;;;;4914135;29;19926;-69
2023/12/19 04:44:51;;;;;;;;;;;;;;;;;;4908380;28;20354;-69
2023/12/19 04:47:16;;;;;;;;;;;;;;;;;;4926215;28;20536;-67
2023/12/19 04:49:41;;;;;;;;;;;;;;;;;;4910122;29;19937;-69
2023/12/19 04:52:06;;;;;;;;;;;;;;;;;;4924211;28;19993;-69
2023/12/19 04:54:32;;;;;;;;;;;;;;;;;;4925713;28;20622;-70
2023/12/19 04:56:57;;;;;;;;;;;;;;;;;;4926107;28;20492;-69
2023/12/19 04:59:22;;;;;;;;;;;;;;;;;;4922623;28;19919;-69
2023/12/19 05:01:48;;;;;;;;;;;;;;;;;;4911214;29;19923;-69
2023/12/19 05:04:15;;;;;;;;;;;;;;;;;;4925198;28;19923;-70
2023/12/19 05:06:44;;;;;;;;;;;;;;;;;;4911596;29;20397;-67
2023/12/19 05:09:29;;;;;;;;;;;;;;;;;;4921266;28;19975;-69
2023/12/19 05:11:54;;;;;;;;;;;;;;;;;;4924822;28;19926;-70
2023/12/19 05:14:20;;;;;;;;;;;;;;;;;;4921377;28;19923;-69
2023/12/19 05:16:45;;;;;;;;;;;;;;;;;;4923952;28;19927;-69
2023/12/19 05:19:10;;;;;;;;;;;;;;;;;;4924468;28;19954;-69
2023/12/19 05:21:36;;;;;;;;;;;;;;;;;;4908715;29;20670;-69
2023/12/19 05:24:01;;;;;;;;;;;;;;;;;;4912324;29;19923;-67
2023/12/19 05:26:46;;;;;;;;;;;;;;;;;;4914687;29;20382;-71
2023/12/19 05:29:12;;;;;;;;;;;;;;;;;;4914822;28;19915;-72
2023/12/19 05:31:37;;;;;;;;;;;;;;;;;;4926503;28;20294;-71
2023/12/19 05:34:07;;;;;;;;;;;;;;;;;;4924118;28;19985;-69
2023/12/19 05:36:34;;;;;;;;;;;;;;;;;;4910498;28;19961;-70
2023/12/19 05:38:59;;;;;;;;;;;;;;;;;;4925440;28;19919;-70
2023/12/19 05:41:25;;;;;;;;;;;;;;;;;;4923494;28;19923;-71
2023/12/19 05:44:11;;;;;;;;;;;;;;;;;;4911175;29;20350;-69
2023/12/19 05:46:37;;;;;;;;;;;;;;;;;;4923490;28;19942;-68
2023/12/19 05:49:05;;;;;;;;;;;;;;;;;;4923400;28;19918;-71
2023/12/19 05:51:39;;;;;;;;;;;;;;;;;;4921566;28;19934;-68
2023/12/19 05:54:04;;;;;;;;;;;;;;;;;;4924613;28;20371;-68
2023/12/19 05:56:33;;;;;;;;;;;;;;;;;;4923087;28;19934;-68
2023/12/19 05:58:58;;;;;;;;;;;;;;;;;;4922880;28;19950;-68
2023/12/19 06:01:27;;;;;;;;;;;;;;;;;;4923434;28;20390;-69
2023/12/19 06:03:52;;;;;;;;;;;;;;;;;;4908904;28;19919;-68
2023/12/19 06:06:32;;;;;;;;;;;;;;;;;;4909728;29;20753;-67
2023/12/19 06:09:17;;;;;;;;;;;;;;;;;;4923065;28;19958;-68
2023/12/19 06:12:03;;;;;;;;;;;;;;;;;;4912499;29;21935;-69
2023/12/19 06:14:48;;;;;;;;;;;;;;;;;;4923723;28;20608;-69
2023/12/19 06:17:16;;;;;;;;;;;;;;;;;;4912034;29;19946;-71
2023/12/19 06:20:01;;;;;;;;;;;;;;;;;;4923920;28;20351;-71
2023/12/19 06:22:35;;;;;;;;;;;;;;;;;;4914809;29;19931;-71
2023/12/19 06:25:13;;;;;;;;;;;;;;;;;;4925463;28;19985;-72
2023/12/19 06:27:40;;;;;;;;;;;;;;;;;;4923728;28;19954;-67
2023/12/19 06:30:08;;;;;;;;;;;;;;;;;;4910960;29;20401;-71
2023/12/19 06:32:40;;;;;;;;;;;;;;;;;;4910665;29;19930;-70
2023/12/19 06:35:08;;;;;;;;;;;;;;;;;;4921123;28;19923;-72
2023/12/19 06:37:36;;;;;;;;;;;;;;;;;;4920062;28;20407;-71
2023/12/19 06:40:04;;;;;;;;;;;;;;;;;;4924349;28;21858;-71
2023/12/19 06:42:32;;;;;;;;;;;;;;;;;;4911945;28;19915;-71
2023/12/19 06:44:57;;;;;;;;;;;;;;;;;;4926995;28;19930;-71
2023/12/19 06:47:24;;;;;;;;;;;;;;;;;;4915546;29;19923;-67
2023/12/19 06:49:49;;;;;;;;;;;;;;;;;;4918279;29;19926;-70
2023/12/19 06:52:34;;;;;;;;;;;;;;;;;;4910548;28;20228;-71
2023/12/19 06:55:00;;;;;;;;;;;;;;;;;;4913850;28;20453;-71
2023/12/19 06:57:43;;;;;;;;;;;;;;;;;;4913836;29;19976;-70
2023/12/19 07:00:29;;;;;;;;;;;;;;;;;;4913015;28;20593;-70
2023/12/19 07:03:15;;;;;;;;;;;;;;;;;;4925183;28;20122;-71
2023/12/19 07:06:03;;;;;;;;;;;;;;;;;;4926224;28;20235;-69
2023/12/19 07:08:48;;;;;;;;;;;;;;;;;;4912946;29;19930;-71
2023/12/19 07:11:33;;;;;;;;;;;;;;;;;;4925336;28;19926;-69
2023/12/19 07:14:19;;;;;;;;;;;;;;;;;;4912281;29;19918;-69
2023/12/19 07:17:04;;;;;;;;;;;;;;;;;;4925255;28;20039;-68
2023/12/19 07:19:49;;;;;;;;;;;;;;;;;;4913056;29;19942;-71
2023/12/19 07:22:35;;;;;;;;;;;;;;;;;;4929254;28;19919;-71
2023/12/19 07:25:20;;;;;;;;;;;;;;;;;;4925724;28;19923;-72
2023/12/19 07:28:06;;;;;;;;;;;;;;;;;;4915914;29;19919;-68
2023/12/19 07:30:51;;;;;;;;;;;;;;;;;;4925262;28;19958;-71
2023/12/19 07:33:36;;;;;;;;;;;;;;;;;;4926640;28;20295;-68
2023/12/19 07:36:22;;;;;;;;;;;;;;;;;;4912294;29;19930;-72
2023/12/19 07:39:07;;;;;;;;;;;;;;;;;;4925370;28;19919;-71
2023/12/19 07:41:52;;;;;;;;;;;;;;;;;;4913173;28;19981;-68
2023/12/19 07:44:38;;;;;;;;;;;;;;;;;;4912990;28;19918;-69
2023/12/19 07:50:40;;;;;;;;;;;;;;;;;;4910569;29;19930;-68
2023/12/19 07:53:25;;;;;;;;;;;;;;;;;;4912537;28;20314;-68
2023/12/19 07:56:11;;;;;;;;;;;;;;;;;;4912934;28;19930;-71
2023/12/19 07:58:37;;;;;;;;;;;;;;;;;;4925675;28;19915;-71
2023/12/19 08:01:09;;;;;;;;;;;;;;;;;;4910450;29;19923;-70
2023/12/19 08:03:54;;;;;;;;;;;;;;;;;;4912855;29;20451;-70
2023/12/19 08:06:41;;;;;;;;;;;;;;;;;;4923373;28;20026;-72
2023/12/19 08:09:29;;;;;;;;;;;;;;;;;;4926604;28;20055;-74
2023/12/19 08:11:58;;;;;;;;;;;;;;;;;;4916169;29;19930;-70
2023/12/19 08:14:27;;;;;;;;;;;;;;;;;;4912981;29;19923;-71
2023/12/19 08:16:57;;;;;;;;;;;;;;;;;;4924722;28;19943;-73
2023/12/19 08:19:42;;;;;;;;;;;;;;;;;;4913738;28;20009;-74
2023/12/19 08:22:12;;;;;;;;;;;;;;;;;;4916321;29;20379;-74
2023/12/19 08:24:38;;;;;;;;;;;;;;;;;;4932282;28;20017;-70
2023/12/19 08:27:07;;;;;;;;;;;;;;;;;;4929638;28;19974;-70
2023/12/19 08:29:36;;;;;;;;;;;;;;;;;;4915608;29;19922;-69
2023/12/19 08:32:06;;;;;;;;;;;;;;;;;;4928503;28;20021;-75
2023/12/19 08:34:51;;;;;;;;;;;;;;;;;;4929509;28;19923;-75
2023/12/19 08:37:36;;;;;;;;;;;;;;;;;;4920593;29;19966;-73
2023/12/19 08:40:22;;;;;;;;;;;;;;;;;;4919980;29;19922;-73
2023/12/19 08:42:53;;;;;;;;;;;;;;;;;;4936043;28;20308;-72
2023/12/19 08:45:38;;;;;;;;;;;;;;;;;;4917000;28;19923;-70
2023/12/19 08:48:23;;;;;;;;;;;;;;;;;;4918237;29;19915;-73
2023/12/19 08:50:52;;;;;;;;;;;;;;;;;;4928148;28;19926;-69
2023/12/19 08:53:38;;;;;;;;;;;;;;;;;;4930396;28;19922;-73
2023/12/19 08:56:23;;;;;;;;;;;;;;;;;;4919891;29;20126;-73
2023/12/19 08:59:11;;;;;;;;;;;;;;;;;;4926565;28;20235;-68
2023/12/19 09:01:41;;;;;;;;;;;;;;;;;;4928317;28;20482;-70
2023/12/19 09:04:29;;;;;;;;;;;;;;;;;;4926375;28;20058;-68
2023/12/19 09:10:15;;;;;;;;;;;;;;;;;;4913069;29;20310;-74
2023/12/19 09:13:01;;;;;;;;;;;;;;;;;;4913853;29;20017;-73
2023/12/19 09:15:30;;;;;;;;;;;;;;;;;;4929376;28;19915;-69
2023/12/19 09:18:16;;;;;;;;;;;;;;;;;;4919879;28;20485;-75
2023/12/19 09:20:45;;;;;;;;;;;;;;;;;;4917049;29;19981;-75
2023/12/19 09:23:16;;;;;;;;;;;;;;;;;;4928561;28;19915;-75
2023/12/19 09:25:45;;;;;;;;;;;;;;;;;;4913326;29;20294;-74
2023/12/19 09:28:15;;;;;;;;;;;;;;;;;;4915701;29;20500;-74
2023/12/19 09:31:00;;;;;;;;;;;;;;;;;;4926357;28;20007;-74
2023/12/19 09:33:29;;;;;;;;;;;;;;;;;;4912944;29;19923;-72
2023/12/19 09:36:15;;;;;;;;;;;;;;;;;;4912599;29;19931;-74
2023/12/19 09:38:45;;;;;;;;;;;;;;;;;;4912109;29;20217;-70
2023/12/19 09:41:13;;;;;;;;;;;;;;;;;;4915109;29;20287;-74
2023/12/19 09:43:39;;;;;;;;;;;;;;;;;;4928101;28;20127;-75
2023/12/19 09:46:07;;;;;;;;;;;;;;;;;;4913958;29;19958;-75
2023/12/19 09:48:36;;;;;;;;;;;;;;;;;;4932294;28;19919;-75
2023/12/19 09:51:01;;;;;;;;;;;;;;;;;;4914987;29;19923;-74
2023/12/19 09:53:42;;;;;;;;;;;;;;;;;;4908510;28;19950;-69
2023/12/19 09:56:07;;;;;;;;;;;;;;;;;;4930341;28;20163;-76
2023/12/19 09:58:33;;;;;;;;;;;;;;;;;;4927291;28;20352;-74
2023/12/19 10:00:58;;;;;;;;;;;;;;;;;;4926589;28;20008;-76
2023/12/19 10:03:23;;;;;;;;;;;;;;;;;;4924795;28;19923;-73
2023/12/19 10:05:49;;;;;;;;;;;;;;;;;;4912560;28;19918;-77
2023/12/19 10:08:14;;;;;;;;;;;;;;;;;;4926387;28;19966;-76
2023/12/19 10:10:39;;;;;;;;;;;;;;;;;;4913373;28;20003;-76
2023/12/19 10:13:06;;;;;;;;;;;;;;;;;;4914968;29;19919;-75
2023/12/19 10:15:31;;;;;;;;;;;;;;;;;;4913044;29;19927;-76
2023/12/19 10:17:56;;;;;;;;;;;;;;;;;;4914426;29;20448;-75
2023/12/19 10:20:24;;;;;;;;;;;;;;;;;;4916574;29;19927;-75
2023/12/19 10:22:49;;;;;;;;;;;;;;;;;;4916474;28;19969;-75
2023/12/19 10:25:15;;;;;;;;;;;;;;;;;;4931821;28;20045;-75
2023/12/19 10:27:40;;;;;;;;;;;;;;;;;;4914855;29;19958;-75
2023/12/19 10:33:22;;;;;;;;;;;;;;;;;;4915395;29;19929;-75
2023/12/19 10:35:47;;;;;;;;;;;;;;;;;;4930728;28;19927;-75
2023/12/19 10:38:15;;;;;;;;;;;;;;;;;;4913919;29;20561;-76
2023/12/19 10:40:40;;;;;;;;;;;;;;;;;;4928659;28;19961;-75
2023/12/19 10:43:08;;;;;;;;;;;;;;;;;;4928758;28;19948;-73
2023/12/19 10:45:33;;;;;;;;;;;;;;;;;;4929831;28;19915;-76
2023/12/19 10:47:58;;;;;;;;;;;;;;;;;;4926879;28;20477;-75
2023/12/19 10:50:24;;;;;;;;;;;;;;;;;;4925196;28;20386;-76
2023/12/19 10:52:50;;;;;;;;;;;;;;;;;;4927164;28;19929;-75
2023/12/19 10:55:17;;;;;;;;;;;;;;;;;;4925611;28;20415;-75
2023/12/19 10:57:43;;;;;;;;;;;;;;;;;;4916074;28;19923;-76
2023/12/19 11:00:11;;;;;;;;;;;;;;;;;;4928538;28;19988;-76
2023/12/19 11:02:37;;;;;;;;;;;;;;;;;;4912204;29;19988;-75
2023/12/19 11:05:02;;;;;;;;;;;;;;;;;;4913155;29;19922;-76
2023/12/19 11:07:27;;;;;;;;;;;;;;;;;;4914839;29;19931;-77
2023/12/19 11:09:53;;;;;;;;;;;;;;;;;;4914121;28;20555;-74
2023/12/19 11:12:18;;;;;;;;;;;;;;;;;;4933555;28;20018;-76
2023/12/19 11:14:43;;;;;;;;;;;;;;;;;;4926646;28;20583;-76
2023/12/19 11:17:09;;;;;;;;;;;;;;;;;;4929687;28;20473;-76
2023/12/19 11:22:30;;;;;;;;;;;;;;;;;;4929831;28;19929;-76
2023/12/19 11:24:56;;;;;;;;;;;;;;;;;;4927063;28;19922;-76
2023/12/19 11:27:41;;;;;;;;;;;;;;;;;;4927634;28;19958;-76
2023/12/19 11:30:07;;;;;;;;;;;;;;;;;;4927183;28;20828;-76
2023/12/19 11:32:36;;;;;;;;;;;;;;;;;;4929439;28;19977;-77
2023/12/19 11:35:01;;;;;;;;;;;;;;;;;;4914846;29;20007;-76
2023/12/19 11:37:26;;;;;;;;;;;;;;;;;;4913038;29;19935;-75
2023/12/19 11:39:52;;;;;;;;;;;;;;;;;;4928867;28;19958;-74
2023/12/19 11:42:17;;;;;;;;;;;;;;;;;;4929628;28;20014;-74
2023/12/19 11:44:43;;;;;;;;;;;;;;;;;;4929396;28;20001;-73
2023/12/19 11:47:08;;;;;;;;;;;;;;;;;;4912462;29;19925;-72
2023/12/19 11:49:33;;;;;;;;;;;;;;;;;;4908897;29;20483;-71
2023/12/19 11:52:00;;;;;;;;;;;;;;;;;;4915532;28;19933;-73
2023/12/19 11:54:26;;;;;;;;;;;;;;;;;;4926284;28;20045;-74
2023/12/19 11:56:51;;;;;;;;;;;;;;;;;;4930028;28;20316;-73
2023/12/19 11:59:17;;;;;;;;;;;;;;;;;;4912056;29;19923;-74
2023/12/19 12:01:43;;;;;;;;;;;;;;;;;;4916759;29;19970;-73
2023/12/19 12:04:10;;;;;;;;;;;;;;;;;;4932270;28;20037;-73
2023/12/19 12:06:35;;;;;;;;;;;;;;;;;;4918800;28;19966;-73
2023/12/19 12:09:03;;;;;;;;;;;;;;;;;;4915994;28;20439;-72
2023/12/19 12:11:28;;;;;;;;;;;;;;;;;;4931185;28;19918;-73
2023/12/19 12:13:54;;;;;;;;;;;;;;;;;;4916690;28;20238;-73
2023/12/19 12:16:19;;;;;;;;;;;;;;;;;;4929285;28;20413;-74
2023/12/19 12:18:44;;;;;;;;;;;;;;;;;;4927413;28;19925;-72
2023/12/19 12:21:10;;;;;;;;;;;;;;;;;;4927569;28;20010;-73
2023/12/19 12:23:37;;;;;;;;;;;;;;;;;;4930324;28;20746;-75
2023/12/19 12:26:05;;;;;;;;;;;;;;;;;;4928122;28;19954;-74
2023/12/19 12:28:33;;;;;;;;;;;;;;;;;;4929090;28;19919;-70
2023/12/19 12:30:59;;;;;;;;;;;;;;;;;;4917376;28;19922;-68
2023/12/19 12:36:44;;;;;;;;;;;;;;;;;;4917691;29;19982;-74
2023/12/19 12:42:01;;;;;;;;;;;;;;;;;;4915227;29;19923;-74
2023/12/19 12:47:50;;;;;;;;;;;;;;;;;;4924388;29;19922;-76
2023/12/19 12:50:20;;;;;;;;;;;;;;;;;;4930724;28;19934;-75
2023/12/19 12:52:46;;;;;;;;;;;;;;;;;;4936277;28;19958;-76
2023/12/19 12:55:13;;;;;;;;;;;;;;;;;;4940842;28;19961;-75
2023/12/19 12:57:44;;;;;;;;;;;;;;;;;;4943261;28;19914;-75
2023/12/19 13:00:18;;;;;;;;;;;;;;;;;;4952650;28;19973;-76
2023/12/19 13:02:43;;;;;;;;;;;;;;;;;;4921872;28;19946;-75
2023/12/19 13:05:09;;;;;;;;;;;;;;;;;;4926365;28;20289;-71
2023/12/19 13:14:07;;;;;;;;;;;;;;;;;;4917702;29;19934;-75
2023/12/19 13:16:33;;;;;;;;;;;;;;;;;;4937735;28;19915;-71
2023/12/19 13:19:05;;;;;;;;;;;;;;;;;;4938916;28;19970;-74
2023/12/19 13:24:48;;;;;;;;;;;;;;;;;;4912532;29;19930;-73
2023/12/19 13:27:14;;;;;;;;;;;;;;;;;;4927439;28;19982;-72
2023/12/19 13:29:40;;;;;;;;;;;;;;;;;;4925538;28;19925;-71
2023/12/19 13:32:07;;;;;;;;;;;;;;;;;;4925494;28;20182;-72
2023/12/19 13:34:33;;;;;;;;;;;;;;;;;;4924673;28;19926;-72
2023/12/19 13:36:58;;;;;;;;;;;;;;;;;;4922521;28;20716;-73
2023/12/19 13:39:24;;;;;;;;;;;;;;;;;;4910837;29;19926;-68
2023/12/19 13:41:52;;;;;;;;;;;;;;;;;;4925590;28;19925;-69
2023/12/19 13:44:17;;;;;;;;;;;;;;;;;;4924109;28;19942;-69
2023/12/19 13:46:42;;;;;;;;;;;;;;;;;;4907979;29;20539;-71
2023/12/19 13:49:08;;;;;;;;;;;;;;;;;;4920600;28;20413;-68
2023/12/19 13:51:34;;;;;;;;;;;;;;;;;;4924419;28;19926;-71
2023/12/19 13:53:59;;;;;;;;;;;;;;;;;;4922617;28;19923;-68
2023/12/19 13:56:24;;;;;;;;;;;;;;;;;;4925461;28;20351;-69
2023/12/19 13:58:50;;;;;;;;;;;;;;;;;;4915779;29;19966;-70
2023/12/19 14:01:16;;;;;;;;;;;;;;;;;;4927028;28;21366;-69
2023/12/19 14:03:41;;;;;;;;;;;;;;;;;;4926237;28;20013;-70
2023/12/19 14:06:06;;;;;;;;;;;;;;;;;;4928336;28;20275;-70
2023/12/19 14:08:32;;;;;;;;;;;;;;;;;;4928339;28;19923;-71
2023/12/19 14:10:57;;;;;;;;;;;;;;;;;;4927899;28;20249;-71
2023/12/19 14:13:22;;;;;;;;;;;;;;;;;;4927780;28;20318;-68
2023/12/19 14:15:53;;;;;;;;;;;;;;;;;;4911517;28;20500;-69
2023/12/19 14:18:18;;;;;;;;;;;;;;;;;;4914338;28;21732;-70
2023/12/19 14:20:44;;;;;;;;;;;;;;;;;;4912822;28;20013;-72
2023/12/19 14:23:09;;;;;;;;;;;;;;;;;;4912928;28;19925;-72
2023/12/19 14:25:37;;;;;;;;;;;;;;;;;;4928720;28;19922;-73
2023/12/19 14:28:05;;;;;;;;;;;;;;;;;;4914317;29;19919;-70
2023/12/19 14:30:30;;;;;;;;;;;;;;;;;;4929112;28;20466;-73
2023/12/19 14:32:56;;;;;;;;;;;;;;;;;;4925936;28;19922;-70
2023/12/19 14:35:21;;;;;;;;;;;;;;;;;;4929685;28;20381;-73
2023/12/19 14:37:46;;;;;;;;;;;;;;;;;;4928090;28;20337;-71
2023/12/19 14:40:12;;;;;;;;;;;;;;;;;;4932107;28;19923;-71
2023/12/19 14:42:40;;;;;;;;;;;;;;;;;;4929576;28;20449;-71
2023/12/19 14:45:06;;;;;;;;;;;;;;;;;;4918735;28;20330;-74
2023/12/19 14:47:31;;;;;;;;;;;;;;;;;;4928721;28;21861;-69
2023/12/19 14:49:57;;;;;;;;;;;;;;;;;;4911807;29;20276;-73
2023/12/19 14:52:23;;;;;;;;;;;;;;;;;;4927988;28;19926;-71
2023/12/19 14:54:48;;;;;;;;;;;;;;;;;;4911546;28;19923;-71
2023/12/19 14:57:13;;;;;;;;;;;;;;;;;;4928956;28;19923;-72
2023/12/19 14:59:39;;;;;;;;;;;;;;;;;;4930927;28;19981;-73
2023/12/19 15:02:05;;;;;;;;;;;;;;;;;;4930363;28;19915;-71
2023/12/19 15:04:32;;;;;;;;;;;;;;;;;;4930879;28;19989;-72
2023/12/19 15:06:57;;;;;;;;;;;;;;;;;;4913756;29;20120;-73
2023/12/19 15:09:23;;;;;;;;;;;;;;;;;;4914580;28;20623;-73
2023/12/19 15:11:48;;;;;;;;;;;;;;;;;;4931076;28;19930;-73
2023/12/19 15:14:14;;;;;;;;;;;;;;;;;;4919882;28;20339;-73
2023/12/19 15:16:39;;;;;;;;;;;;;;;;;;4931440;28;20387;-70
2023/12/19 15:19:04;;;;;;;;;;;;;;;;;;4931314;28;19925;-73
2023/12/19 15:21:30;;;;;;;;;;;;;;;;;;4916441;28;19923;-71
2023/12/19 15:23:57;;;;;;;;;;;;;;;;;;4926839;28;19929;-73
2023/12/19 15:26:23;;;;;;;;;;;;;;;;;;4913801;29;19930;-73
2023/12/19 15:28:48;;;;;;;;;;;;;;;;;;4928517;28;20450;-73
2023/12/19 15:31:14;;;;;;;;;;;;;;;;;;4928477;28;20132;-72
2023/12/19 15:33:42;;;;;;;;;;;;;;;;;;4929715;28;19933;-71
2023/12/19 15:36:07;;;;;;;;;;;;;;;;;;4930321;28;19918;-73
2023/12/19 15:38:32;;;;;;;;;;;;;;;;;;4931397;28;19919;-70
2023/12/19 15:40:58;;;;;;;;;;;;;;;;;;4928795;28;19919;-73
2023/12/19 15:43:24;;;;;;;;;;;;;;;;;;4929370;28;19926;-72
2023/12/19 15:45:50;;;;;;;;;;;;;;;;;;4928630;28;19919;-73
2023/12/19 15:48:15;;;;;;;;;;;;;;;;;;4913366;29;19919;-74
2023/12/19 15:50:41;;;;;;;;;;;;;;;;;;4914138;29;21851;-74
2023/12/19 15:53:08;;;;;;;;;;;;;;;;;;4929905;28;19951;-73
2023/12/19 15:55:34;;;;;;;;;;;;;;;;;;4930551;28;19923;-73
2023/12/19 15:57:59;;;;;;;;;;;;;;;;;;4917431;29;19923;-72
2023/12/19 16:00:24;;;;;;;;;;;;;;;;;;4927577;28;20398;-73
2023/12/19 16:02:50;;;;;;;;;;;;;;;;;;4930011;28;20305;-73
2023/12/19 16:05:16;;;;;;;;;;;;;;;;;;4929919;28;20275;-72
2023/12/19 16:07:44;;;;;;;;;;;;;;;;;;4927264;28;20431;-73
2023/12/19 16:10:12;;;;;;;;;;;;;;;;;;4912751;29;19922;-74
2023/12/19 16:12:37;;;;;;;;;;;;;;;;;;4929283;28;19934;-74
2023/12/19 16:15:03;;;;;;;;;;;;;;;;;;4927293;28;20033;-71
2023/12/19 16:17:28;;;;;;;;;;;;;;;;;;4914836;29;19931;-71
2023/12/19 16:19:53;;;;;;;;;;;;;;;;;;4928382;28;20153;-72
2023/12/19 16:22:19;;;;;;;;;;;;;;;;;;4915471;28;20518;-72
2023/12/19 16:24:44;;;;;;;;;;;;;;;;;;4911604;29;19920;-72
2023/12/19 16:27:09;;;;;;;;;;;;;;;;;;4913217;29;19930;-71
2023/12/19 16:29:36;;;;;;;;;;;;;;;;;;4927205;28;20235;-71
2023/12/19 16:32:02;;;;;;;;;;;;;;;;;;4927527;28;19937;-71
2023/12/19 16:34:27;;;;;;;;;;;;;;;;;;4914016;28;20338;-71
2023/12/19 16:36:52;;;;;;;;;;;;;;;;;;4928411;28;19927;-71
2023/12/19 16:39:18;;;;;;;;;;;;;;;;;;4928560;28;19989;-71
2023/12/19 16:41:43;;;;;;;;;;;;;;;;;;4928983;28;19915;-72
2023/12/19 16:44:09;;;;;;;;;;;;;;;;;;4912618;29;19965;-69
2023/12/19 16:46:34;;;;;;;;;;;;;;;;;;4912617;29;19923;-72
2023/12/19 16:49:00;;;;;;;;;;;;;;;;;;4927631;28;19922;-72
2023/12/19 16:51:26;;;;;;;;;;;;;;;;;;4913943;29;20193;-71
2023/12/19 16:53:51;;;;;;;;;;;;;;;;;;4913211;29;19930;-72
2023/12/19 16:56:17;;;;;;;;;;;;;;;;;;4916164;28;19915;-72
2023/12/19 16:58:45;;;;;;;;;;;;;;;;;;4930203;28;19925;-72
2023/12/19 17:01:10;;;;;;;;;;;;;;;;;;4913359;29;19919;-72
2023/12/19 17:03:36;;;;;;;;;;;;;;;;;;4929574;28;20100;-73
2023/12/19 17:06:02;;;;;;;;;;;;;;;;;;4915596;29;20091;-73
2023/12/19 17:08:27;;;;;;;;;;;;;;;;;;4930600;28;19935;-73
2023/12/19 17:10:52;;;;;;;;;;;;;;;;;;4930491;28;19985;-74
2023/12/19 17:13:17;;;;;;;;;;;;;;;;;;4930277;28;19950;-73
2023/12/19 17:15:43;;;;;;;;;;;;;;;;;;4930517;28;20001;-72
2023/12/19 17:18:08;;;;;;;;;;;;;;;;;;4919404;28;20379;-74
2023/12/19 17:20:33;;;;;;;;;;;;;;;;;;4932377;28;19930;-74
2023/12/19 17:22:59;;;;;;;;;;;;;;;;;;4930582;28;19922;-74
2023/12/19 17:25:24;;;;;;;;;;;;;;;;;;4931526;28;20429;-75
2023/12/19 17:27:49;;;;;;;;;;;;;;;;;;4917671;28;19919;-74